Time;durP1;ratioP1;P1;durP2;ratioP2;P2;SDS_P1;SDS_P2;PMS_P1;PMS_P2;Temp;Humidity;BMP_temperature;BMP_pressure;BME280_temperature;BME280_humidity;BME280_pressure;Samples;Min_cycle;Max_cycle;Signal;HPM_P1;HPM_P2
2021/09/21 03:02:49;;;;;;;21.83;20.33;;;14.80;99.90;;;;;;4899358;29;20495;-72
2021/09/21 03:05:20;;;;;;;20.97;19.73;;;14.80;99.90;;;;;;4913522;29;20464;-71
2021/09/21 03:07:49;;;;;;;20.83;19.33;;;14.70;99.90;;;;;;4908612;29;20568;-72
2021/09/21 03:10:32;;;;;;;21.03;19.73;;;14.70;99.90;;;;;;4901126;29;21021;-71
2021/09/21 03:18:28;;;;;;;21.40;19.90;;;14.60;99.90;;;;;;4895457;29;20979;-72
2021/09/21 03:20:55;;;;;;;21.43;20.03;;;14.70;99.90;;;;;;4896017;29;20511;-73
2021/09/21 03:23:21;;;;;;;22.33;20.73;;;14.70;99.90;;;;;;4895914;29;20483;-72
2021/09/21 03:25:48;;;;;;;22.67;21.00;;;14.70;99.90;;;;;;4895879;29;20467;-72
2021/09/21 03:28:15;;;;;;;20.83;19.50;;;14.70;99.90;;;;;;4895625;29;20937;-72
2021/09/21 03:30:41;;;;;;;22.83;21.30;;;14.70;99.90;;;;;;4895657;29;20507;-73
2021/09/21 03:33:08;;;;;;;21.63;20.07;;;14.70;99.90;;;;;;4895656;29;20467;-73
2021/09/21 03:35:36;;;;;;;21.60;20.20;;;14.70;99.90;;;;;;4895888;29;20458;-72
2021/09/21 03:38:04;;;;;;;22.30;20.93;;;14.70;99.90;;;;;;4895651;29;20498;-72
2021/09/21 03:40:31;;;;;;;22.80;21.30;;;14.70;99.90;;;;;;4895881;29;20455;-72
2021/09/21 03:42:59;;;;;;;21.83;20.53;;;14.70;99.90;;;;;;4895415;29;20507;-73
2021/09/21 03:45:26;;;;;;;22.60;21.20;;;14.60;99.90;;;;;;4895391;29;20491;-72
2021/09/21 03:47:53;;;;;;;22.23;20.60;;;14.70;99.90;;;;;;4895532;29;20459;-73
2021/09/21 03:50:20;;;;;;;22.20;20.70;;;14.60;99.90;;;;;;4895698;29;20462;-72
2021/09/21 03:52:48;;;;;;;21.60;20.20;;;14.60;99.90;;;;;;4898445;29;20459;-74
2021/09/21 03:55:16;;;;;;;23.33;21.73;;;14.60;99.90;;;;;;4899311;29;20483;-73
2021/09/21 03:57:42;;;;;;;22.90;21.40;;;14.60;99.90;;;;;;4899169;29;20455;-70
2021/09/21 04:00:11;;;;;;;22.83;21.43;;;14.60;99.90;;;;;;4898479;29;20530;-71
2021/09/21 04:02:37;;;;;;;23.67;21.70;;;14.60;99.90;;;;;;4899019;29;20515;-70
2021/09/21 04:05:05;;;;;;;22.70;21.20;;;14.50;99.90;;;;;;4899014;29;20470;-71
2021/09/21 04:07:32;;;;;;;22.80;21.20;;;14.50;99.90;;;;;;4898724;29;20463;-70
2021/09/21 04:10:00;;;;;;;22.57;21.00;;;14.50;99.90;;;;;;4898544;29;20515;-71
2021/09/21 04:12:26;;;;;;;23.33;21.63;;;14.50;99.90;;;;;;4898143;29;20459;-70
2021/09/21 04:14:53;;;;;;;25.13;23.20;;;14.40;99.90;;;;;;4898606;29;20495;-71
2021/09/21 04:17:20;;;;;;;23.97;22.13;;;14.40;99.90;;;;;;4898246;29;20455;-74
2021/09/21 04:19:46;;;;;;;24.03;22.43;;;14.30;99.90;;;;;;4898109;29;20494;-73
2021/09/21 04:22:13;;;;;;;23.00;21.60;;;14.30;99.90;;;;;;4898297;29;20466;-70
2021/09/21 04:24:40;;;;;;;24.07;22.37;;;14.30;99.90;;;;;;4898420;29;20463;-70
2021/09/21 04:27:08;;;;;;;23.13;21.63;;;14.30;99.90;;;;;;4896929;29;20506;-73
2021/09/21 04:29:35;;;;;;;23.70;22.10;;;14.20;99.90;;;;;;4897264;29;20462;-73
2021/09/21 04:32:03;;;;;;;24.30;22.67;;;14.10;99.90;;;;;;4898975;29;20463;-73
2021/09/21 04:34:30;;;;;;;23.97;22.27;;;14.00;99.90;;;;;;4898834;29;20478;-74
2021/09/21 04:36:58;;;;;;;23.03;21.43;;;13.90;99.90;;;;;;4898548;29;20799;-73
2021/09/21 04:39:24;;;;;;;24.00;22.20;;;13.90;99.90;;;;;;4898521;29;20602;-72
2021/09/21 04:41:52;;;;;;;23.67;22.07;;;13.80;99.90;;;;;;4898558;29;20459;-74
2021/09/21 04:44:20;;;;;;;23.57;21.70;;;13.70;99.90;;;;;;4898740;29;20463;-73
2021/09/21 04:46:47;;;;;;;24.00;22.30;;;13.70;99.90;;;;;;4898315;29;20514;-73
2021/09/21 04:49:14;;;;;;;23.53;21.80;;;13.80;99.90;;;;;;4898215;29;20924;-73
2021/09/21 04:51:41;;;;;;;24.07;22.27;;;13.70;99.90;;;;;;4898459;29;20530;-73
2021/09/21 04:54:07;;;;;;;23.33;21.73;;;13.70;99.90;;;;;;4898310;29;20519;-73
2021/09/21 04:56:34;;;;;;;25.03;23.23;;;13.70;99.90;;;;;;4898289;29;20455;-73
2021/09/21 04:59:01;;;;;;;24.17;22.27;;;13.80;99.90;;;;;;4898084;29;20487;-73
2021/09/21 05:01:29;;;;;;;23.20;21.40;;;13.80;99.90;;;;;;4898009;29;20543;-73
2021/09/21 05:03:56;;;;;;;25.30;23.50;;;13.80;99.90;;;;;;4897214;29;20459;-72
2021/09/21 05:06:23;;;;;;;24.80;23.20;;;13.80;99.90;;;;;;4898088;29;20563;-73
2021/09/21 05:08:49;;;;;;;23.33;21.73;;;13.80;99.90;;;;;;4898300;29;20478;-73
2021/09/21 05:11:16;;;;;;;24.37;22.67;;;13.80;99.90;;;;;;4898022;29;20800;-73
2021/09/21 05:13:43;;;;;;;23.23;21.53;;;13.80;99.90;;;;;;4897754;29;20802;-73
2021/09/21 05:16:09;;;;;;;25.33;23.20;;;13.80;99.90;;;;;;4897872;29;20447;-73
2021/09/21 05:18:37;;;;;;;25.60;23.70;;;13.90;99.90;;;;;;4897873;29;20483;-73
2021/09/21 05:21:04;;;;;;;24.37;22.57;;;13.80;99.90;;;;;;4897915;29;20942;-72
2021/09/21 05:23:31;;;;;;;24.77;22.97;;;13.70;99.90;;;;;;4897704;29;20459;-74
2021/09/21 05:25:58;;;;;;;24.60;22.70;;;13.80;99.90;;;;;;4897671;29;20451;-73
2021/09/21 05:28:24;;;;;;;24.50;22.80;;;13.80;99.90;;;;;;4897668;29;20524;-73
2021/09/21 05:30:51;;;;;;;22.43;20.90;;;13.70;99.90;;;;;;4897708;29;20447;-73
2021/09/21 05:33:18;;;;;;;23.33;21.27;;;13.70;99.90;;;;;;4897689;29;20463;-73
2021/09/21 05:35:46;;;;;;;23.20;21.70;;;13.70;99.90;;;;;;4897551;29;20488;-72
2021/09/21 05:38:12;;;;;;;22.97;21.43;;;13.70;99.90;;;;;;4897481;29;21365;-72
2021/09/21 05:40:40;;;;;;;23.53;21.73;;;13.70;99.90;;;;;;4897478;29;20460;-73
2021/09/21 05:43:07;;;;;;;21.93;19.70;;;13.80;99.90;;;;;;4897615;29;20511;-72
2021/09/21 05:45:34;;;;;;;21.73;19.90;;;13.90;99.90;;;;;;4897339;29;20459;-73
2021/09/21 05:48:00;;;;;;;22.50;20.77;;;13.80;99.90;;;;;;4897301;29;20459;-72
2021/09/21 05:50:27;;;;;;;22.67;20.90;;;13.80;99.90;;;;;;4897219;29;20500;-73
2021/09/21 05:52:55;;;;;;;22.27;20.73;;;13.90;99.90;;;;;;4895591;29;20462;-73
2021/09/21 05:55:22;;;;;;;25.20;23.20;;;13.90;99.90;;;;;;4900792;29;20513;-73
2021/09/21 05:57:48;;;;;;;23.97;22.20;;;13.90;99.90;;;;;;4905202;29;20515;-72
2021/09/21 06:00:17;;;;;;;22.90;21.10;;;13.90;99.90;;;;;;4897991;29;20530;-72
2021/09/21 06:02:44;;;;;;;23.80;21.73;;;14.00;99.90;;;;;;4905025;29;20502;-73
2021/09/21 06:05:11;;;;;;;28.57;23.10;;;14.10;99.90;;;;;;4896831;29;20466;-73
2021/09/21 06:07:44;;;;;;;24.20;22.10;;;14.00;99.90;;;;;;4896796;29;20463;-73
2021/09/21 06:10:13;;;;;;;21.40;19.90;;;14.40;99.90;;;;;;4896804;29;20436;-73
2021/09/21 06:12:39;;;;;;;22.07;20.30;;;14.80;99.90;;;;;;4896735;29;20455;-73
2021/09/21 06:15:07;;;;;;;23.70;21.40;;;15.00;99.90;;;;;;4896843;29;20868;-73
2021/09/21 06:17:34;;;;;;;23.70;21.87;;;15.10;99.90;;;;;;4896999;29;20462;-73
2021/09/21 06:20:01;;;;;;;21.97;20.30;;;15.00;99.90;;;;;;4896427;29;21013;-73
2021/09/21 06:22:27;;;;;;;22.20;20.77;;;15.10;99.90;;;;;;4896388;29;20531;-74
2021/09/21 06:24:54;;;;;;;21.67;19.83;;;15.50;99.90;;;;;;4896585;29;20455;-72
2021/09/21 06:27:23;;;;;;;21.33;19.80;;;15.90;99.90;;;;;;4896737;29;20486;-73
2021/09/21 06:29:49;;;;;;;21.60;20.20;;;16.20;99.90;;;;;;4896493;29;20515;-72
2021/09/21 06:32:16;;;;;;;21.83;19.90;;;16.60;99.90;;;;;;4896252;29;20818;-72
2021/09/21 06:34:43;;;;;;;24.10;21.60;;;16.90;99.90;;;;;;4896310;29;20750;-73
2021/09/21 06:37:10;;;;;;;21.57;19.83;;;17.10;99.90;;;;;;4896295;29;20841;-73
2021/09/21 06:39:37;;;;;;;21.20;19.90;;;17.10;99.90;;;;;;4896130;29;20609;-73
2021/09/21 06:42:04;;;;;;;21.73;20.23;;;17.00;99.90;;;;;;4896252;29;20483;-74
2021/09/21 06:44:32;;;;;;;21.73;20.07;;;17.20;99.90;;;;;;4896187;29;20539;-73
2021/09/21 06:46:59;;;;;;;22.37;20.93;;;17.30;99.90;;;;;;4896232;29;21057;-73
2021/09/21 06:49:25;;;;;;;21.97;20.57;;;17.20;99.90;;;;;;4896243;29;20463;-73
2021/09/21 06:51:52;;;;;;;23.83;21.93;;;17.00;99.90;;;;;;4896094;29;20463;-73
2021/09/21 06:54:19;;;;;;;24.00;22.10;;;17.10;99.90;;;;;;4896195;29;20463;-73
2021/09/21 06:56:46;;;;;;;22.00;20.60;;;17.10;99.90;;;;;;4895918;29;20463;-73
2021/09/21 06:59:12;;;;;;;22.23;20.83;;;17.70;99.90;;;;;;4895976;29;20510;-72
2021/09/21 07:01:40;;;;;;;19.50;18.20;;;18.30;99.90;;;;;;4897863;29;20505;-73
2021/09/21 07:04:07;;;;;;;21.17;19.77;;;18.80;99.90;;;;;;4904433;29;20459;-73
2021/09/21 07:06:34;;;;;;;21.20;19.90;;;19.00;99.90;;;;;;4895949;29;20466;-73
2021/09/21 07:09:01;;;;;;;19.57;18.57;;;19.10;99.90;;;;;;4895645;29;20462;-72
2021/09/21 07:11:28;;;;;;;19.77;18.70;;;19.30;99.90;;;;;;4895733;29;20523;-73
2021/09/21 07:13:54;;;;;;;18.67;17.37;;;19.50;99.60;;;;;;4895803;29;20459;-73
2021/09/21 07:16:21;;;;;;;20.63;19.33;;;19.90;98.60;;;;;;4895952;29;20515;-73
2021/09/21 07:18:49;;;;;;;21.37;19.97;;;20.00;97.70;;;;;;4895929;29;20462;-73
2021/09/21 07:21:16;;;;;;;20.27;19.00;;;20.10;97.50;;;;;;4895756;29;20456;-73
2021/09/21 07:23:43;;;;;;;20.40;18.67;;;20.70;96.90;;;;;;4893760;29;20613;-75
2021/09/21 07:26:10;;;;;;;20.63;19.13;;;20.80;95.70;;;;;;4896616;29;20462;-75
2021/09/21 07:28:37;;;;;;;18.80;17.73;;;21.00;95.90;;;;;;4900195;29;20507;-74
2021/09/21 07:31:03;;;;;;;19.80;18.60;;;21.60;95.40;;;;;;4900069;29;20466;-75
2021/09/21 07:33:30;;;;;;;20.90;19.80;;;22.00;93.80;;;;;;4899859;29;20489;-75
2021/09/21 07:35:58;;;;;;;20.40;19.30;;;22.10;93.50;;;;;;4899781;29;20471;-72
2021/09/21 07:38:25;;;;;;;18.57;17.47;;;22.60;92.20;;;;;;4899891;29;20458;-73
2021/09/21 07:40:51;;;;;;;19.80;18.80;;;22.20;91.90;;;;;;4899775;29;20495;-74
2021/09/21 07:43:18;;;;;;;20.20;18.73;;;22.60;91.10;;;;;;4899526;29;20950;-75
2021/09/21 07:45:45;;;;;;;18.83;17.83;;;22.70;91.10;;;;;;4899472;29;20554;-72
2021/09/21 07:48:17;;;;;;;20.00;18.60;;;22.80;90.10;;;;;;4899512;29;20463;-73
2021/09/21 07:50:44;;;;;;;19.60;18.20;;;22.60;90.40;;;;;;4899555;29;20493;-73
2021/09/21 07:53:12;;;;;;;21.27;19.13;;;22.70;89.80;;;;;;4899466;29;20454;-73
2021/09/21 07:55:39;;;;;;;20.40;18.80;;;22.40;89.50;;;;;;4899509;29;20463;-72
2021/09/21 07:58:06;;;;;;;22.90;19.77;;;21.70;90.20;;;;;;4895077;29;20455;-72
2021/09/21 08:00:32;;;;;;;18.77;17.77;;;21.70;90.50;;;;;;4897253;29;20613;-72
2021/09/21 08:02:59;;;;;;;19.00;17.90;;;21.70;90.40;;;;;;4896739;29;20477;-73
2021/09/21 08:05:26;;;;;;;19.33;17.70;;;21.90;90.30;;;;;;4898350;29;20482;-73
2021/09/21 08:07:54;;;;;;;18.07;16.97;;;22.70;89.60;;;;;;4913921;29;20917;-72
2021/09/21 08:10:23;;;;;;;18.00;17.20;;;23.10;85.00;;;;;;4917619;29;20466;-74
2021/09/21 08:12:49;;;;;;;18.27;17.27;;;22.80;84.10;;;;;;4917320;29;20458;-73
2021/09/21 08:15:16;;;;;;;19.07;18.07;;;21.90;83.50;;;;;;4917012;29;20522;-73
2021/09/21 08:17:44;;;;;;;18.00;17.20;;;22.50;83.70;;;;;;4917295;29;20458;-74
2021/09/21 08:20:12;;;;;;;20.40;19.40;;;22.40;83.20;;;;;;4917013;29;20497;-73
2021/09/21 08:22:39;;;;;;;21.30;19.50;;;21.60;84.60;;;;;;4917194;29;20462;-73
2021/09/21 08:25:09;;;;;;;18.27;17.27;;;21.50;85.90;;;;;;4916929;29;20462;-74
2021/09/21 08:27:38;;;;;;;18.17;17.27;;;21.10;82.60;;;;;;4915754;29;20464;-74
2021/09/21 08:30:06;;;;;;;18.47;17.37;;;20.70;85.50;;;;;;4916079;29;20553;-75
2021/09/21 08:32:33;;;;;;;19.10;17.80;;;21.10;86.50;;;;;;4916921;29;20522;-73
2021/09/21 08:34:59;;;;;;;17.43;16.43;;;21.60;81.80;;;;;;4916695;29;20473;-73
2021/09/21 08:37:26;;;;;;;17.90;17.00;;;21.30;81.60;;;;;;4916477;29;20916;-76
2021/09/21 08:39:53;;;;;;;17.73;16.70;;;21.40;81.00;;;;;;4914625;29;20494;-75
2021/09/21 08:42:19;;;;;;;17.67;16.57;;;21.60;81.50;;;;;;4916784;29;20466;-75
2021/09/21 08:44:48;;;;;;;18.00;16.87;;;21.20;81.40;;;;;;4915061;29;20459;-75
2021/09/21 08:47:15;;;;;;;17.77;16.70;;;21.00;82.40;;;;;;4916736;29;20458;-75
2021/09/21 08:49:41;;;;;;;17.77;16.77;;;21.60;81.60;;;;;;4916703;29;20564;-74
2021/09/21 08:52:08;;;;;;;17.40;16.30;;;22.20;81.30;;;;;;4916728;29;20446;-72
2021/09/21 08:54:35;;;;;;;17.23;16.43;;;22.60;78.00;;;;;;4916775;29;20462;-73
2021/09/21 08:57:02;;;;;;;17.83;16.93;;;23.00;77.20;;;;;;4916431;29;20481;-72
2021/09/21 08:59:30;;;;;;;18.10;17.20;;;22.80;76.20;;;;;;4916323;29;20586;-74
2021/09/21 09:02:04;;;;;;;17.97;16.83;;;23.30;74.60;;;;;;4916235;29;20944;-75
2021/09/21 09:04:31;;;;;;;18.20;17.30;;;23.80;72.70;;;;;;4916473;29;20493;-75
2021/09/21 09:06:59;;;;;;;17.17;16.27;;;23.90;71.40;;;;;;4916252;29;20454;-74
2021/09/21 09:09:30;;;;;;;18.20;17.30;;;24.00;71.60;;;;;;4916258;29;20451;-75
2021/09/21 09:11:58;;;;;;;16.30;15.50;;;23.40;70.20;;;;;;4916220;29;20465;-73
2021/09/21 09:14:27;;;;;;;17.07;16.27;;;23.80;70.10;;;;;;4916083;29;20466;-74
2021/09/21 09:16:55;;;;;;;17.60;16.60;;;24.60;68.40;;;;;;4916064;29;20458;-75
2021/09/21 09:19:31;;;;;;;17.07;15.97;;;24.40;66.90;;;;;;4916021;29;20489;-74
2021/09/21 09:24:49;;;;;;;18.17;17.17;;;24.40;66.20;;;;;;4909070;29;20451;-74
2021/09/21 09:27:19;;;;;;;17.50;16.70;;;24.40;66.50;;;;;;4916296;29;20494;-74
2021/09/21 09:29:53;;;;;;;18.20;17.40;;;24.10;66.50;;;;;;4915836;29;20492;-72
2021/09/21 09:32:20;;;;;;;17.57;16.77;;;24.80;65.40;;;;;;4914556;29;20485;-72
2021/09/21 09:34:49;;;;;;;17.03;16.13;;;25.70;62.90;;;;;;4914501;29;20450;-73
2021/09/21 09:37:17;;;;;;;18.07;17.17;;;25.80;63.40;;;;;;4915671;29;20451;-75
2021/09/21 09:39:46;;;;;;;17.90;16.97;;;26.20;60.80;;;;;;4915716;29;20494;-75
2021/09/21 09:42:13;;;;;;;18.27;17.37;;;24.60;61.80;;;;;;4914050;29;20545;-75
2021/09/21 09:44:43;;;;;;;17.17;16.37;;;24.30;64.00;;;;;;4915691;29;20473;-75
2021/09/21 09:47:09;;;;;;;18.87;17.80;;;24.00;64.20;;;;;;4915599;29;20461;-75
2021/09/21 09:49:38;;;;;;;18.70;17.33;;;23.20;65.50;;;;;;4915235;29;20460;-75
2021/09/21 09:52:08;;;;;;;17.70;16.80;;;23.10;68.10;;;;;;4915922;29;20506;-74
2021/09/21 09:54:36;;;;;;;17.17;16.17;;;23.60;67.50;;;;;;4915782;29;20459;-74
2021/09/21 09:57:03;;;;;;;17.50;16.43;;;24.50;66.30;;;;;;4915528;29;20454;-74
2021/09/21 09:59:30;;;;;;;19.30;18.30;;;25.20;64.10;;;;;;4915053;29;20478;-75
2021/09/21 10:01:58;;;;;;;17.33;16.53;;;25.30;61.10;;;;;;4915113;29;20478;-75
2021/09/21 10:04:25;;;;;;;17.70;16.90;;;24.60;62.40;;;;;;4915044;29;20933;-75
2021/09/21 10:06:52;;;;;;;18.80;17.80;;;24.50;64.00;;;;;;4915309;29;20467;-74
2021/09/21 10:09:20;;;;;;;19.17;18.07;;;24.70;62.30;;;;;;4915306;29;20534;-74
2021/09/21 10:11:49;;;;;;;17.60;16.80;;;25.30;60.60;;;;;;4915410;29;20462;-75
2021/09/21 10:14:18;;;;;;;19.07;18.07;;;25.80;60.80;;;;;;4913463;29;20999;-74
2021/09/21 10:16:52;;;;;;;19.37;18.37;;;26.50;58.20;;;;;;4914877;29;20485;-74
2021/09/21 10:19:21;;;;;;;19.70;18.70;;;26.80;57.50;;;;;;4915115;29;20481;-73
2021/09/21 10:21:49;;;;;;;19.00;18.00;;;25.70;58.50;;;;;;4915101;29;20498;-73
2021/09/21 10:24:15;;;;;;;19.03;18.13;;;26.70;58.60;;;;;;4915247;29;20469;-74
2021/09/21 10:26:46;;;;;;;18.10;17.10;;;26.80;58.90;;;;;;4915150;29;20948;-74
2021/09/21 10:29:14;;;;;;;19.20;18.30;;;27.60;57.60;;;;;;4915187;29;20486;-73
2021/09/21 10:31:42;;;;;;;19.90;18.97;;;28.80;55.20;;;;;;4915279;29;20502;-74
2021/09/21 10:34:13;;;;;;;18.20;17.10;;;28.10;54.40;;;;;;4914958;29;20526;-74
2021/09/21 10:36:50;;;;;;;19.80;18.70;;;27.40;56.20;;;;;;4915138;29;20870;-73
2021/09/21 10:39:17;;;;;;;18.90;18.00;;;27.30;56.20;;;;;;4915147;29;20450;-74
2021/09/21 10:41:52;;;;;;;19.00;18.10;;;27.50;56.00;;;;;;4914958;29;20502;-74
2021/09/21 10:44:19;;;;;;;18.77;17.87;;;27.10;56.10;;;;;;4915193;29;20449;-74
2021/09/21 10:46:52;;;;;;;19.60;18.60;;;26.40;57.00;;;;;;4914785;29;20454;-74
2021/09/21 10:49:28;;;;;;;20.30;19.20;;;26.70;57.60;;;;;;4915186;29;20462;-73
2021/09/21 10:51:58;;;;;;;18.70;17.90;;;27.40;55.20;;;;;;4914847;29;20518;-73
2021/09/21 10:54:37;;;;;;;18.37;17.37;;;27.40;55.60;;;;;;4914856;29;20938;-73
2021/09/21 10:57:11;;;;;;;17.83;16.93;;;27.90;55.40;;;;;;4914993;29;20454;-73
2021/09/21 10:59:39;;;;;;;17.40;16.60;;;28.20;53.90;;;;;;4914807;29;20483;-73
2021/09/21 11:02:07;;;;;;;16.73;16.03;;;27.10;55.90;;;;;;4914012;29;20861;-72
2021/09/21 11:04:44;;;;;;;18.10;17.30;;;25.50;59.30;;;;;;4914555;29;20513;-73
2021/09/21 11:07:15;;;;;;;17.97;16.97;;;26.40;59.70;;;;;;4914741;29;20454;-72
2021/09/21 11:09:42;;;;;;;18.90;18.00;;;27.20;57.40;;;;;;4914675;29;20458;-72
2021/09/21 11:12:12;;;;;;;18.07;17.20;;;28.10;54.70;;;;;;4914650;29;20790;-73
2021/09/21 11:14:41;;;;;;;17.70;16.90;;;27.50;54.50;;;;;;4914613;29;20454;-74
2021/09/21 11:17:10;;;;;;;19.70;18.37;;;25.70;57.40;;;;;;4914716;29;20465;-73
2021/09/21 11:19:38;;;;;;;19.17;18.17;;;24.80;59.00;;;;;;4914824;29;20462;-73
2021/09/21 11:22:07;;;;;;;18.63;17.03;;;23.80;60.70;;;;;;4914728;29;20832;-72
2021/09/21 11:24:34;;;;;;;17.40;16.60;;;24.00;62.50;;;;;;4914691;29;20462;-74
2021/09/21 11:27:03;;;;;;;16.90;16.10;;;24.10;60.90;;;;;;4914705;29;20461;-73
2021/09/21 11:29:34;;;;;;;17.47;16.40;;;24.00;62.40;;;;;;4914521;29;20873;-73
2021/09/21 11:32:01;;;;;;;18.00;17.10;;;23.60;62.70;;;;;;4914411;29;20486;-73
2021/09/21 11:34:30;;;;;;;18.37;17.47;;;23.20;63.60;;;;;;4914551;29;20450;-73
2021/09/21 11:37:02;;;;;;;19.30;18.30;;;23.00;62.90;;;;;;4911540;29;20969;-71
2021/09/21 11:39:30;;;;;;;17.33;16.43;;;22.10;64.70;;;;;;4912275;29;20471;-71
2021/09/21 11:41:58;;;;;;;18.00;17.10;;;22.60;64.90;;;;;;4913848;29;20510;-73
2021/09/21 11:44:25;;;;;;;17.80;17.00;;;23.50;63.70;;;;;;4913955;29;20458;-72
2021/09/21 11:46:59;;;;;;;17.73;16.93;;;24.70;61.10;;;;;;4913977;29;20462;-73
2021/09/21 11:49:26;;;;;;;18.67;17.70;;;26.00;58.60;;;;;;4913963;29;20461;-73
2021/09/21 11:51:53;;;;;;;17.33;16.43;;;25.30;58.50;;;;;;4913991;29;20466;-72
2021/09/21 11:54:20;;;;;;;17.07;16.07;;;24.80;59.40;;;;;;4914055;29;20964;-73
2021/09/21 11:56:47;;;;;;;18.23;17.30;;;24.30;60.50;;;;;;4914150;29;20490;-73
2021/09/21 11:59:16;;;;;;;18.27;17.17;;;24.00;60.70;;;;;;4914069;29;20486;-72
2021/09/21 12:01:49;;;;;;;18.30;17.30;;;23.90;61.60;;;;;;4913793;29;20509;-72
2021/09/21 12:04:17;;;;;;;18.43;17.50;;;24.10;60.90;;;;;;4913887;29;20462;-73
2021/09/21 12:06:47;;;;;;;19.07;18.00;;;24.10;61.90;;;;;;4913712;29;20466;-73
2021/09/21 12:09:15;;;;;;;17.10;16.20;;;23.70;62.10;;;;;;4913880;29;20912;-72
2021/09/21 12:11:45;;;;;;;17.60;16.80;;;24.30;62.00;;;;;;4913880;29;20525;-73
2021/09/21 12:14:12;;;;;;;18.60;17.80;;;25.00;59.80;;;;;;4917270;29;20462;-72
2021/09/21 12:16:39;;;;;;;18.37;17.43;;;25.40;58.80;;;;;;4917549;29;20454;-71
2021/09/21 12:19:17;;;;;;;20.40;19.40;;;25.90;57.90;;;;;;4917624;29;20454;-71
2021/09/21 12:21:45;;;;;;;19.20;18.20;;;26.70;56.60;;;;;;4917523;29;20884;-72
2021/09/21 12:24:12;;;;;;;18.50;17.53;;;27.00;55.80;;;;;;4917239;29;20465;-73
2021/09/21 12:26:39;;;;;;;19.93;19.03;;;26.70;55.20;;;;;;4917346;29;20505;-74
2021/09/21 12:29:08;;;;;;;18.77;17.97;;;25.70;56.70;;;;;;4917455;29;20487;-74
2021/09/21 12:31:36;;;;;;;18.07;17.27;;;26.00;57.80;;;;;;4917479;29;20477;-72
2021/09/21 12:34:13;;;;;;;18.03;16.73;;;25.50;58.50;;;;;;4917337;29;20495;-72
2021/09/21 12:36:44;;;;;;;19.40;18.50;;;25.30;58.80;;;;;;4917286;29;20530;-72
2021/09/21 12:39:15;;;;;;;18.93;17.73;;;25.90;58.20;;;;;;4917038;29;20461;-72
2021/09/21 12:41:44;;;;;;;19.20;18.30;;;26.00;57.40;;;;;;4916904;29;21054;-74
2021/09/21 12:44:12;;;;;;;19.83;18.83;;;25.70;57.70;;;;;;4917091;29;20458;-74
2021/09/21 12:46:42;;;;;;;19.13;18.13;;;25.00;58.70;;;;;;4917192;29;20477;-73
2021/09/21 12:49:11;;;;;;;17.80;17.00;;;24.80;59.70;;;;;;4917127;29;20454;-74
2021/09/21 12:51:41;;;;;;;18.67;17.73;;;24.30;60.20;;;;;;4915304;29;20487;-74
2021/09/21 12:54:12;;;;;;;19.47;18.40;;;24.50;60.80;;;;;;4916975;29;21026;-73
2021/09/21 12:56:41;;;;;;;20.03;18.70;;;24.60;61.50;;;;;;4916848;29;20905;-74
2021/09/21 12:59:11;;;;;;;18.53;17.40;;;24.50;61.80;;;;;;4916649;29;20482;-74
2021/09/21 13:01:38;;;;;;;19.40;18.30;;;24.70;62.70;;;;;;4916636;29;20498;-74
2021/09/21 13:04:05;;;;;;;20.63;19.53;;;24.70;61.90;;;;;;4916778;29;20463;-74
2021/09/21 13:06:32;;;;;;;20.50;19.30;;;23.80;63.00;;;;;;4916286;29;20446;-74
2021/09/21 13:09:00;;;;;;;19.37;18.37;;;23.30;64.90;;;;;;4916529;29;21038;-75
2021/09/21 13:11:27;;;;;;;20.60;19.47;;;22.30;66.40;;;;;;4916745;29;20460;-74
2021/09/21 13:13:54;;;;;;;19.00;17.90;;;21.90;68.10;;;;;;4916390;29;20458;-74
2021/09/21 13:16:20;;;;;;;20.23;19.10;;;21.80;68.30;;;;;;4916669;29;20462;-74
2021/09/21 13:18:48;;;;;;;19.33;18.00;;;21.50;69.30;;;;;;4916711;29;20496;-74
2021/09/21 13:21:15;;;;;;;19.33;18.27;;;21.20;70.30;;;;;;4916329;29;20502;-74
2021/09/21 13:23:42;;;;;;;19.67;18.47;;;20.80;71.50;;;;;;4915887;29;20463;-73
2021/09/21 13:26:10;;;;;;;19.47;18.17;;;20.80;72.50;;;;;;4916129;29;20467;-74
2021/09/21 13:28:36;;;;;;;19.70;18.33;;;21.20;72.10;;;;;;4916435;29;20466;-74
2021/09/21 13:31:05;;;;;;;19.53;18.17;;;21.40;72.20;;;;;;4916283;29;20581;-73
2021/09/21 13:33:32;;;;;;;19.00;18.00;;;22.00;71.40;;;;;;4916259;29;20458;-74
2021/09/21 13:35:59;;;;;;;19.70;18.60;;;22.30;69.60;;;;;;4916029;29;20454;-73
2021/09/21 13:38:25;;;;;;;18.37;17.47;;;22.50;68.50;;;;;;4915976;29;20455;-75
2021/09/21 13:40:52;;;;;;;18.73;17.83;;;22.60;69.00;;;;;;4916222;29;20497;-75
2021/09/21 13:43:20;;;;;;;17.83;16.70;;;22.40;69.30;;;;;;4915955;29;20875;-74
2021/09/21 13:45:47;;;;;;;17.87;16.53;;;22.00;71.10;;;;;;4916074;29;20459;-74
2021/09/21 13:48:14;;;;;;;18.13;17.13;;;21.70;71.50;;;;;;4915935;29;20462;-74
2021/09/21 13:50:42;;;;;;;18.43;17.33;;;21.20;71.70;;;;;;4916025;29;20829;-73
2021/09/21 13:53:09;;;;;;;18.00;16.80;;;20.80;72.00;;;;;;4915966;29;20510;-74
2021/09/21 13:55:35;;;;;;;19.13;17.93;;;20.60;73.00;;;;;;4916103;29;20467;-74
2021/09/21 13:58:02;;;;;;;18.40;17.20;;;20.50;73.70;;;;;;4915847;29;20457;-74
2021/09/21 14:00:30;;;;;;;18.57;17.37;;;20.60;74.50;;;;;;4915601;29;20478;-74
2021/09/21 14:02:57;;;;;;;18.70;17.63;;;20.90;74.60;;;;;;4915690;29;20915;-73
2021/09/21 14:05:28;;;;;;;18.33;17.33;;;21.00;73.80;;;;;;4915593;29;20458;-73
2021/09/21 14:07:55;;;;;;;18.23;17.23;;;21.20;73.80;;;;;;4915605;29;20522;-74
2021/09/21 14:10:22;;;;;;;18.67;17.47;;;21.00;74.10;;;;;;4915687;29;20466;-73
2021/09/21 14:12:49;;;;;;;19.00;17.90;;;20.80;73.90;;;;;;4915389;29;20866;-73
2021/09/21 14:15:17;;;;;;;20.70;19.30;;;20.60;75.00;;;;;;4915411;29;20458;-73
2021/09/21 14:17:47;;;;;;;17.83;16.90;;;20.40;75.00;;;;;;4915199;29;20952;-74
2021/09/21 14:20:15;;;;;;;18.40;17.20;;;20.30;75.80;;;;;;4900672;29;20946;-73
2021/09/21 14:22:42;;;;;;;18.87;17.73;;;20.30;76.10;;;;;;4896502;29;21025;-74
2021/09/21 14:25:10;;;;;;;17.40;16.50;;;20.20;75.60;;;;;;4906830;29;20481;-76
2021/09/21 14:27:37;;;;;;;17.97;16.97;;;20.40;76.10;;;;;;4896575;29;20872;-76
2021/09/21 14:30:06;;;;;;;17.53;16.60;;;20.40;76.00;;;;;;4896631;29;20451;-74
2021/09/21 14:32:33;;;;;;;17.07;16.13;;;19.90;77.60;;;;;;4896390;29;20451;-75
2021/09/21 14:35:01;;;;;;;17.60;16.70;;;19.50;78.50;;;;;;4896405;29;20458;-75
2021/09/21 14:37:28;;;;;;;18.70;17.63;;;19.20;80.00;;;;;;4896416;29;20455;-75
2021/09/21 14:39:54;;;;;;;18.30;17.00;;;19.00;81.20;;;;;;4896391;29;20459;-74
2021/09/21 14:42:21;;;;;;;18.00;16.80;;;19.00;82.80;;;;;;4896075;29;20634;-73
2021/09/21 14:44:48;;;;;;;18.17;17.20;;;19.10;81.50;;;;;;4896352;29;20459;-73
2021/09/21 14:47:14;;;;;;;16.93;16.03;;;18.90;81.70;;;;;;4896609;29;20464;-73
2021/09/21 14:49:41;;;;;;;17.00;16.13;;;19.00;81.90;;;;;;4896405;29;20459;-73
2021/09/21 14:52:09;;;;;;;17.47;16.47;;;19.10;82.50;;;;;;4896276;29;20448;-73
2021/09/21 14:54:36;;;;;;;17.40;16.50;;;19.50;80.90;;;;;;4896087;29;20562;-74
2021/09/21 14:57:03;;;;;;;17.50;16.50;;;19.50;80.90;;;;;;4895982;29;20470;-73
2021/09/21 14:59:30;;;;;;;16.90;15.90;;;19.40;80.20;;;;;;4895978;29;20487;-73
2021/09/21 15:01:57;;;;;;;17.77;16.77;;;19.20;80.80;;;;;;4895628;29;20506;-73
2021/09/21 15:04:23;;;;;;;18.43;17.33;;;19.20;81.20;;;;;;4895918;29;20462;-75
2021/09/21 15:06:50;;;;;;;18.67;17.57;;;19.00;81.70;;;;;;4900938;29;20478;-74
2021/09/21 15:09:18;;;;;;;17.57;16.57;;;18.90;81.70;;;;;;4914701;29;20458;-74
2021/09/21 15:11:45;;;;;;;17.63;16.53;;;18.90;82.80;;;;;;4914722;29;20469;-74
2021/09/21 15:14:11;;;;;;;18.00;16.90;;;19.00;83.20;;;;;;4914783;29;20480;-74
2021/09/21 15:16:38;;;;;;;18.13;17.17;;;19.00;82.10;;;;;;4905790;29;20475;-74
2021/09/21 15:19:07;;;;;;;18.47;17.40;;;19.20;83.20;;;;;;4895957;29;20463;-74
2021/09/21 15:21:34;;;;;;;18.47;17.37;;;19.40;82.80;;;;;;4895896;29;20502;-74
2021/09/21 15:24:02;;;;;;;16.67;15.73;;;19.40;81.90;;;;;;4903798;29;20498;-74
2021/09/21 15:26:30;;;;;;;17.40;16.50;;;19.20;80.80;;;;;;4903436;29;20439;-73
2021/09/21 15:28:57;;;;;;;17.80;16.67;;;19.10;82.20;;;;;;4914845;29;20509;-74
2021/09/21 15:31:24;;;;;;;16.30;15.50;;;19.00;81.50;;;;;;4914613;29;20450;-74
2021/09/21 15:33:51;;;;;;;14.83;14.03;;;19.00;83.10;;;;;;4914495;29;20454;-74
2021/09/21 15:36:17;;;;;;;17.23;16.37;;;19.00;82.10;;;;;;4914541;29;20506;-74
2021/09/21 15:38:44;;;;;;;16.50;15.60;;;18.90;82.20;;;;;;4914800;29;20450;-74
2021/09/21 15:41:11;;;;;;;17.60;16.40;;;18.70;82.80;;;;;;4914314;29;20534;-72